sensor_id;sensor_type;location;lat;lon;timestamp;pressure;altitude;pressure_sealevel;temperature;humidity
44974;BME280;60981;50.720;11.342;2023-08-24T00:00:28;62910.69;;;-145.11;100.00
44974;BME280;60981;50.720;11.342;2023-08-24T00:01:30;62910.69;;;-145.11;100.00
44974;BME280;60981;50.720;11.342;2023-08-24T00:02:32;62910.69;;;-145.11;100.00
44974;BME280;60981;50.720;11.342;2023-08-24T00:03:34;62910.69;;;-145.11;100.00
44974;BME280;60981;50.720;11.342;2023-08-24T00:04:36;62910.69;;;-145.11;100.00
44974;BME280;60981;50.720;11.342;2023-08-24T00:05:38;62910.69;;;-145.11;100.00
44974;BME280;60981;50.720;11.342;2023-08-24T00:06:41;62910.69;;;-145.11;100.00
44974;BME280;60981;50.720;11.342;2023-08-24T00:07:43;62910.69;;;-145.11;100.00
44974;BME280;60981;50.720;11.342;2023-08-24T00:08:45;62910.69;;;-145.11;100.00
44974;BME280;60981;50.720;11.342;2023-08-24T00:09:47;62910.69;;;-145.11;100.00
44974;BME280;60981;50.720;11.342;2023-08-24T00:10:49;62910.69;;;-145.11;100.00
44974;BME280;60981;50.720;11.342;2023-08-24T00:11:51;62910.69;;;-145.11;100.00
44974;BME280;60981;50.720;11.342;2023-08-24T00:12:53;62910.69;;;-145.11;100.00
44974;BME280;60981;50.720;11.342;2023-08-24T00:13:55;62910.69;;;-145.11;100.00
44974;BME280;60981;50.720;11.342;2023-08-24T00:14:57;62910.69;;;-145.11;100.00
44974;BME280;60981;50.720;11.342;2023-08-24T00:15:59;62910.69;;;-145.11;100.00
44974;BME280;60981;50.720;11.342;2023-08-24T00:17:01;62910.69;;;-145.11;100.00
44974;BME280;60981;50.720;11.342;2023-08-24T00:18:03;62910.69;;;-145.11;100.00
44974;BME280;60981;50.720;11.342;2023-08-24T00:19:05;62910.69;;;-145.11;100.00
44974;BME280;60981;50.720;11.342;2023-08-24T00:20:07;62910.69;;;-145.11;100.00
44974;BME280;60981;50.720;11.342;2023-08-24T00:21:15;62910.69;;;-145.11;100.00
44974;BME280;60981;50.720;11.342;2023-08-24T00:22:18;62910.69;;;-145.11;100.00
44974;BME280;60981;50.720;11.342;2023-08-24T00:23:20;62910.69;;;-145.11;100.00
44974;BME280;60981;50.720;11.342;2023-08-24T00:24:22;62910.69;;;-145.11;100.00
44974;BME280;60981;50.720;11.342;2023-08-24T00:25:24;62910.69;;;-145.11;100.00
44974;BME280;60981;50.720;11.342;2023-08-24T00:26:27;62910.69;;;-145.11;100.00
44974;BME280;60981;50.720;11.342;2023-08-24T00:27:28;62910.69;;;-145.11;100.00
44974;BME280;60981;50.720;11.342;2023-08-24T00:28:30;62910.69;;;-145.11;100.00
44974;BME280;60981;50.720;11.342;2023-08-24T00:29:32;62910.69;;;-145.11;100.00
44974;BME280;60981;50.720;11.342;2023-08-24T00:30:34;62910.69;;;-145.11;100.00
44974;BME280;60981;50.720;11.342;2023-08-24T00:31:36;62910.69;;;-145.11;100.00
44974;BME280;60981;50.720;11.342;2023-08-24T00:32:38;62910.69;;;-145.11;100.00
44974;BME280;60981;50.720;11.342;2023-08-24T00:33:40;62910.69;;;-145.11;100.00
44974;BME280;60981;50.720;11.342;2023-08-24T00:34:41;100981.19;;;23.60;61.04
44974;BME280;60981;50.720;11.342;2023-08-24T00:35:43;99714.63;;;17.65;64.60
44974;BME280;60981;50.720;11.342;2023-08-24T00:36:45;90484.16;;;-73.69;65.96
44974;BME280;60981;50.720;11.342;2023-08-24T00:37:47;99728.19;;;17.70;64.81
44974;BME280;60981;50.720;11.342;2023-08-24T00:38:50;99695.94;;;17.31;65.58
44974;BME280;60981;50.720;11.342;2023-08-24T00:39:53;99710.56;;;17.40;65.83
44974;BME280;60981;50.720;11.342;2023-08-24T00:40:56;99666.63;;;17.08;66.12
44974;BME280;60981;50.720;11.342;2023-08-24T00:41:58;99672.19;;;17.23;66.22
44974;BME280;60981;50.720;11.342;2023-08-24T00:42:59;99662.84;;;17.26;65.85
44974;BME280;60981;50.720;11.342;2023-08-24T00:44:02;99707.94;;;17.45;65.59
44974;BME280;60981;50.720;11.342;2023-08-24T00:45:05;99675.75;;;17.50;65.24
44974;BME280;60981;50.720;11.342;2023-08-24T00:46:07;99686.00;;;17.53;65.08
44974;BME280;60981;50.720;11.342;2023-08-24T00:47:10;99681.13;;;17.50;65.41
44974;BME280;60981;50.720;11.342;2023-08-24T00:48:12;99668.56;;;17.34;65.11
44974;BME280;60981;50.720;11.342;2023-08-24T00:49:14;99693.06;;;17.38;65.22
44974;BME280;60981;50.720;11.342;2023-08-24T00:50:16;99693.06;;;17.38;65.22
44974;BME280;60981;50.720;11.342;2023-08-24T00:51:19;99671.94;;;17.24;65.75
44974;BME280;60981;50.720;11.342;2023-08-24T00:52:21;99683.50;;;17.25;65.81
44974;BME280;60981;50.720;11.342;2023-08-24T00:53:24;99651.97;;;17.15;65.58
44974;BME280;60981;50.720;11.342;2023-08-24T00:54:26;99667.75;;;17.12;65.96
44974;BME280;60981;50.720;11.342;2023-08-24T00:55:28;99657.47;;;17.26;65.66
44974;BME280;60981;50.720;11.342;2023-08-24T00:56:30;99696.69;;;17.48;65.42
44974;BME280;60981;50.720;11.342;2023-08-24T00:57:32;99688.31;;;17.45;65.48
44974;BME280;60981;50.720;11.342;2023-08-24T00:58:34;99660.72;;;17.28;65.40
44974;BME280;60981;50.720;11.342;2023-08-24T00:59:36;99678.63;;;17.22;65.81
44974;BME280;60981;50.720;11.342;2023-08-24T01:00:39;99694.25;;;17.25;67.31
44974;BME280;60981;50.720;11.342;2023-08-24T01:01:41;62910.69;;;-145.11;100.00
44974;BME280;60981;50.720;11.342;2023-08-24T01:02:44;62910.69;;;-145.11;100.00
44974;BME280;60981;50.720;11.342;2023-08-24T01:03:47;62910.69;;;-145.11;100.00
44974;BME280;60981;50.720;11.342;2023-08-24T01:04:49;62910.69;;;-145.11;100.00
44974;BME280;60981;50.720;11.342;2023-08-24T01:05:51;62910.69;;;-145.11;50.51
44974;BME280;60981;50.720;11.342;2023-08-24T01:06:53;62910.69;;;-145.11;100.00
44974;BME280;60981;50.720;11.342;2023-08-24T01:07:55;62910.69;;;-145.11;100.00
44974;BME280;60981;50.720;11.342;2023-08-24T01:08:57;62910.69;;;-145.11;100.00
44974;BME280;60981;50.720;11.342;2023-08-24T01:09:59;62910.69;;;-145.11;100.00
44974;BME280;60981;50.720;11.342;2023-08-24T01:14:23;62910.69;;;-145.11;100.00
44974;BME280;60981;50.720;11.342;2023-08-24T01:15:33;62910.69;;;-145.11;100.00
44974;BME280;60981;50.720;11.342;2023-08-24T01:16:40;62910.69;;;-145.11;100.00
44974;BME280;60981;50.720;11.342;2023-08-24T01:17:46;62910.69;;;-145.11;100.00
44974;BME280;60981;50.720;11.342;2023-08-24T01:18:50;62910.69;;;-145.11;100.00
44974;BME280;60981;50.720;11.342;2023-08-24T01:19:52;62910.69;;;-145.11;100.00
44974;BME280;60981;50.720;11.342;2023-08-24T01:20:54;62910.69;;;-145.11;100.00
44974;BME280;60981;50.720;11.342;2023-08-24T01:21:57;62910.69;;;-145.11;100.00
44974;BME280;60981;50.720;11.342;2023-08-24T01:23:32;62910.69;;;-145.11;100.00
44974;BME280;60981;50.720;11.342;2023-08-24T01:24:41;62910.69;;;-145.11;100.00
44974;BME280;60981;50.720;11.342;2023-08-24T01:25:54;62910.69;;;-145.11;100.00
44974;BME280;60981;50.720;11.342;2023-08-24T01:26:57;62910.69;;;-145.11;100.00
44974;BME280;60981;50.720;11.342;2023-08-24T01:28:01;62910.69;;;-145.11;100.00
44974;BME280;60981;50.720;11.342;2023-08-24T01:29:04;62910.69;;;-145.11;100.00
44974;BME280;60981;50.720;11.342;2023-08-24T01:30:06;62910.69;;;-145.11;100.00
44974;BME280;60981;50.720;11.342;2023-08-24T01:31:09;62910.69;;;-145.11;100.00
44974;BME280;60981;50.720;11.342;2023-08-24T01:32:11;62910.69;;;-145.11;100.00
44974;BME280;60981;50.720;11.342;2023-08-24T01:33:13;62910.69;;;-145.11;100.00
44974;BME280;60981;50.720;11.342;2023-08-24T01:34:15;62910.69;;;-145.11;100.00
44974;BME280;60981;50.720;11.342;2023-08-24T01:35:17;62910.69;;;-145.11;100.00
44974;BME280;60981;50.720;11.342;2023-08-24T01:36:19;62910.69;;;-145.11;100.00
44974;BME280;60981;50.720;11.342;2023-08-24T01:37:21;62910.69;;;-145.11;100.00
44974;BME280;60981;50.720;11.342;2023-08-24T01:38:23;62910.69;;;-145.11;100.00
44974;BME280;60981;50.720;11.342;2023-08-24T01:39:49;62910.69;;;-145.11;100.00
44974;BME280;60981;50.720;11.342;2023-08-24T01:42:02;62910.69;;;-145.11;100.00
44974;BME280;60981;50.720;11.342;2023-08-24T01:43:07;62910.69;;;-145.11;100.00
44974;BME280;60981;50.720;11.342;2023-08-24T01:44:13;62910.69;;;-145.11;100.00
44974;BME280;60981;50.720;11.342;2023-08-24T01:45:17;62910.69;;;-145.11;100.00
44974;BME280;60981;50.720;11.342;2023-08-24T01:46:21;62910.69;;;-145.11;100.00
44974;BME280;60981;50.720;11.342;2023-08-24T01:47:24;62910.69;;;-145.11;100.00
44974;BME280;60981;50.720;11.342;2023-08-24T01:48:27;62910.69;;;-145.11;100.00
44974;BME280;60981;50.720;11.342;2023-08-24T01:49:31;62910.69;;;-145.11;100.00
44974;BME280;60981;50.720;11.342;2023-08-24T01:50:35;62910.69;;;-145.11;100.00
44974;BME280;60981;50.720;11.342;2023-08-24T01:51:37;62910.69;;;-145.11;100.00
44974;BME280;60981;50.720;11.342;2023-08-24T01:52:40;62910.69;;;-145.11;100.00
44974;BME280;60981;50.720;11.342;2023-08-24T01:53:42;62910.69;;;-145.11;100.00
44974;BME280;60981;50.720;11.342;2023-08-24T01:54:44;62910.69;;;-145.11;100.00
44974;BME280;60981;50.720;11.342;2023-08-24T01:55:46;62910.69;;;-145.11;100.00
44974;BME280;60981;50.720;11.342;2023-08-24T01:56:48;62910.69;;;-145.11;100.00
44974;BME280;60981;50.720;11.342;2023-08-24T01:57:50;62910.69;;;-145.11;100.00
44974;BME280;60981;50.720;11.342;2023-08-24T01:58:52;62910.69;;;-145.11;100.00
44974;BME280;60981;50.720;11.342;2023-08-24T01:59:54;62910.69;;;-145.11;100.00
44974;BME280;60981;50.720;11.342;2023-08-24T02:00:56;62910.69;;;-145.11;100.00
44974;BME280;60981;50.720;11.342;2023-08-24T02:01:58;62910.69;;;-145.11;100.00
44974;BME280;60981;50.720;11.342;2023-08-24T02:03:00;62910.69;;;-145.11;100.00
44974;BME280;60981;50.720;11.342;2023-08-24T02:04:02;62910.69;;;-145.11;100.00
44974;BME280;60981;50.720;11.342;2023-08-24T02:05:04;62910.69;;;-145.11;100.00
44974;BME280;60981;50.720;11.342;2023-08-24T02:06:06;62910.69;;;-145.11;100.00
44974;BME280;60981;50.720;11.342;2023-08-24T02:07:08;62910.69;;;-145.11;100.00
44974;BME280;60981;50.720;11.342;2023-08-24T02:08:10;62910.69;;;-145.11;100.00
44974;BME280;60981;50.720;11.342;2023-08-24T02:09:12;62910.69;;;-145.11;100.00
44974;BME280;60981;50.720;11.342;2023-08-24T02:10:13;62910.69;;;-145.11;100.00
44974;BME280;60981;50.720;11.342;2023-08-24T02:11:15;62910.69;;;-145.11;100.00
44974;BME280;60981;50.720;11.342;2023-08-24T02:12:17;62910.69;;;-145.11;100.00
44974;BME280;60981;50.720;11.342;2023-08-24T02:13:19;62910.69;;;-145.11;100.00
44974;BME280;60981;50.720;11.342;2023-08-24T02:14:21;62910.69;;;-145.11;100.00
44974;BME280;60981;50.720;11.342;2023-08-24T02:15:23;62910.69;;;-145.11;100.00
44974;BME280;60981;50.720;11.342;2023-08-24T02:16:24;62910.69;;;-145.11;100.00
44974;BME280;60981;50.720;11.342;2023-08-24T02:17:27;62910.69;;;-145.11;100.00
44974;BME280;60981;50.720;11.342;2023-08-24T02:18:28;62910.69;;;-145.11;100.00
44974;BME280;60981;50.720;11.342;2023-08-24T02:19:30;62910.69;;;-145.11;100.00
44974;BME280;60981;50.720;11.342;2023-08-24T02:20:38;62910.69;;;-145.11;100.00
44974;BME280;60981;50.720;11.342;2023-08-24T02:21:40;62910.69;;;-145.11;100.00
44974;BME280;60981;50.720;11.342;2023-08-24T02:22:42;62910.69;;;-145.11;100.00
44974;BME280;60981;50.720;11.342;2023-08-24T02:23:44;62910.69;;;-145.11;100.00
44974;BME280;60981;50.720;11.342;2023-08-24T02:24:46;62910.69;;;-145.11;100.00
44974;BME280;60981;50.720;11.342;2023-08-24T02:25:48;62910.69;;;-145.11;100.00
44974;BME280;60981;50.720;11.342;2023-08-24T02:26:50;62910.69;;;-145.11;100.00
44974;BME280;60981;50.720;11.342;2023-08-24T02:27:52;62910.69;;;-145.11;100.00
44974;BME280;60981;50.720;11.342;2023-08-24T02:28:53;62910.69;;;-145.11;100.00
44974;BME280;60981;50.720;11.342;2023-08-24T02:29:55;62910.69;;;-145.11;100.00
44974;BME280;60981;50.720;11.342;2023-08-24T02:31:01;62910.69;;;-145.11;100.00
44974;BME280;60981;50.720;11.342;2023-08-24T02:32:03;62910.69;;;-145.11;100.00
44974;BME280;60981;50.720;11.342;2023-08-24T02:33:05;62910.69;;;-145.11;100.00
44974;BME280;60981;50.720;11.342;2023-08-24T02:34:07;62910.69;;;-145.11;100.00
44974;BME280;60981;50.720;11.342;2023-08-24T02:35:09;62910.69;;;-145.11;100.00
44974;BME280;60981;50.720;11.342;2023-08-24T02:36:11;62910.69;;;-145.11;100.00
44974;BME280;60981;50.720;11.342;2023-08-24T02:37:13;62910.69;;;-145.11;100.00
44974;BME280;60981;50.720;11.342;2023-08-24T02:38:14;62910.69;;;-145.11;100.00
44974;BME280;60981;50.720;11.342;2023-08-24T02:39:16;62910.69;;;-145.11;100.00
44974;BME280;60981;50.720;11.342;2023-08-24T02:40:18;62910.69;;;-145.11;100.00
44974;BME280;60981;50.720;11.342;2023-08-24T02:41:20;62910.69;;;-145.11;100.00
44974;BME280;60981;50.720;11.342;2023-08-24T02:42:22;62910.69;;;-145.11;100.00
44974;BME280;60981;50.720;11.342;2023-08-24T02:43:24;62910.69;;;-145.11;100.00
44974;BME280;60981;50.720;11.342;2023-08-24T02:44:26;62910.69;;;-145.11;100.00
44974;BME280;60981;50.720;11.342;2023-08-24T02:45:28;62910.69;;;-145.11;100.00
44974;BME280;60981;50.720;11.342;2023-08-24T02:46:30;62910.69;;;-145.11;100.00
44974;BME280;60981;50.720;11.342;2023-08-24T02:47:31;62910.69;;;-145.11;100.00
44974;BME280;60981;50.720;11.342;2023-08-24T02:48:34;62910.69;;;-145.11;100.00
44974;BME280;60981;50.720;11.342;2023-08-24T02:49:36;62910.69;;;-145.11;100.00
44974;BME280;60981;50.720;11.342;2023-08-24T02:50:38;62910.69;;;-145.11;100.00
44974;BME280;60981;50.720;11.342;2023-08-24T02:51:40;62910.69;;;-145.11;100.00
44974;BME280;60981;50.720;11.342;2023-08-24T02:52:42;62910.69;;;-145.11;100.00
44974;BME280;60981;50.720;11.342;2023-08-24T02:53:44;62910.69;;;-145.11;100.00
44974;BME280;60981;50.720;11.342;2023-08-24T02:54:45;62910.69;;;-145.11;100.00
44974;BME280;60981;50.720;11.342;2023-08-24T02:55:47;62910.69;;;-145.11;100.00
44974;BME280;60981;50.720;11.342;2023-08-24T02:56:49;62910.69;;;-145.11;100.00
44974;BME280;60981;50.720;11.342;2023-08-24T02:57:50;62910.69;;;-145.11;100.00
44974;BME280;60981;50.720;11.342;2023-08-24T02:58:52;62910.69;;;-145.11;100.00
44974;BME280;60981;50.720;11.342;2023-08-24T02:59:54;62910.69;;;-145.11;100.00
44974;BME280;60981;50.720;11.342;2023-08-24T03:00:56;62910.69;;;-145.11;100.00
44974;BME280;60981;50.720;11.342;2023-08-24T03:01:58;62910.69;;;-145.11;100.00
44974;BME280;60981;50.720;11.342;2023-08-24T03:03:00;62910.69;;;-145.11;100.00
44974;BME280;60981;50.720;11.342;2023-08-24T03:04:02;62910.69;;;-145.11;100.00
44974;BME280;60981;50.720;11.342;2023-08-24T03:05:06;62910.69;;;-145.11;100.00
44974;BME280;60981;50.720;11.342;2023-08-24T03:06:08;62910.69;;;-145.11;100.00
44974;BME280;60981;50.720;11.342;2023-08-24T03:07:10;62910.69;;;-145.11;100.00
44974;BME280;60981;50.720;11.342;2023-08-24T03:08:12;62910.69;;;-145.11;100.00
44974;BME280;60981;50.720;11.342;2023-08-24T03:09:14;62910.69;;;-145.11;100.00
44974;BME280;60981;50.720;11.342;2023-08-24T03:10:15;62910.69;;;-145.11;100.00
44974;BME280;60981;50.720;11.342;2023-08-24T03:11:17;62910.69;;;-145.11;100.00
44974;BME280;60981;50.720;11.342;2023-08-24T03:12:19;62910.69;;;-145.11;100.00
44974;BME280;60981;50.720;11.342;2023-08-24T03:13:22;62910.69;;;-145.11;100.00
44974;BME280;60981;50.720;11.342;2023-08-24T03:14:24;62910.69;;;-145.11;100.00
44974;BME280;60981;50.720;11.342;2023-08-24T03:15:26;62910.69;;;-145.11;100.00
44974;BME280;60981;50.720;11.342;2023-08-24T03:16:28;62910.69;;;-145.11;100.00
44974;BME280;60981;50.720;11.342;2023-08-24T03:17:30;62910.69;;;-145.11;100.00
44974;BME280;60981;50.720;11.342;2023-08-24T03:18:32;62910.69;;;-145.11;100.00
44974;BME280;60981;50.720;11.342;2023-08-24T03:19:34;62910.69;;;-145.11;100.00
44974;BME280;60981;50.720;11.342;2023-08-24T03:20:35;62910.69;;;-145.11;100.00
44974;BME280;60981;50.720;11.342;2023-08-24T03:21:37;62910.69;;;-145.11;100.00
44974;BME280;60981;50.720;11.342;2023-08-24T03:22:39;62910.69;;;-145.11;100.00
44974;BME280;60981;50.720;11.342;2023-08-24T03:23:42;62910.69;;;-145.11;100.00
44974;BME280;60981;50.720;11.342;2023-08-24T03:24:43;62910.69;;;-145.11;100.00
44974;BME280;60981;50.720;11.342;2023-08-24T03:25:45;62910.69;;;-145.11;100.00
44974;BME280;60981;50.720;11.342;2023-08-24T03:26:47;62910.69;;;-145.11;100.00
44974;BME280;60981;50.720;11.342;2023-08-24T03:27:49;62910.69;;;-145.11;100.00
44974;BME280;60981;50.720;11.342;2023-08-24T03:28:52;62910.69;;;-145.11;100.00
44974;BME280;60981;50.720;11.342;2023-08-24T03:29:54;62910.69;;;-145.11;100.00
44974;BME280;60981;50.720;11.342;2023-08-24T03:30:56;62910.69;;;-145.11;100.00
44974;BME280;60981;50.720;11.342;2023-08-24T03:31:57;62910.69;;;-145.11;100.00
44974;BME280;60981;50.720;11.342;2023-08-24T03:32:59;62910.69;;;-145.11;100.00
44974;BME280;60981;50.720;11.342;2023-08-24T03:34:01;62910.69;;;-145.11;100.00
44974;BME280;60981;50.720;11.342;2023-08-24T03:35:05;62910.69;;;-145.11;100.00
44974;BME280;60981;50.720;11.342;2023-08-24T03:36:08;62910.69;;;-145.11;100.00
44974;BME280;60981;50.720;11.342;2023-08-24T03:37:10;62910.69;;;-145.11;100.00
44974;BME280;60981;50.720;11.342;2023-08-24T03:38:12;62910.69;;;-145.11;100.00
44974;BME280;60981;50.720;11.342;2023-08-24T03:39:14;62910.69;;;-145.11;100.00
44974;BME280;60981;50.720;11.342;2023-08-24T03:40:17;62910.69;;;-145.11;100.00
44974;BME280;60981;50.720;11.342;2023-08-24T03:41:18;62910.69;;;-145.11;100.00
44974;BME280;60981;50.720;11.342;2023-08-24T03:42:20;62910.69;;;-145.11;100.00
44974;BME280;60981;50.720;11.342;2023-08-24T03:43:22;62910.69;;;-145.11;100.00
44974;BME280;60981;50.720;11.342;2023-08-24T03:44:24;62910.69;;;-145.11;100.00
44974;BME280;60981;50.720;11.342;2023-08-24T03:45:26;62910.69;;;-145.11;100.00
44974;BME280;60981;50.720;11.342;2023-08-24T03:46:28;62910.69;;;-145.11;100.00
44974;BME280;60981;50.720;11.342;2023-08-24T03:47:30;62910.69;;;-145.11;100.00
44974;BME280;60981;50.720;11.342;2023-08-24T03:48:32;62910.69;;;-145.11;100.00
44974;BME280;60981;50.720;11.342;2023-08-24T03:49:34;62910.69;;;-145.11;100.00
44974;BME280;60981;50.720;11.342;2023-08-24T03:50:36;62910.69;;;-145.11;100.00
44974;BME280;60981;50.720;11.342;2023-08-24T03:51:37;62910.69;;;-145.11;100.00
44974;BME280;60981;50.720;11.342;2023-08-24T03:52:39;62910.69;;;-145.11;100.00
44974;BME280;60981;50.720;11.342;2023-08-24T03:53:41;62910.69;;;-145.11;100.00
44974;BME280;60981;50.720;11.342;2023-08-24T03:54:43;62910.69;;;-145.11;100.00
44974;BME280;60981;50.720;11.342;2023-08-24T03:55:47;62910.69;;;-145.11;100.00
44974;BME280;60981;50.720;11.342;2023-08-24T03:56:50;62910.69;;;-145.11;100.00
44974;BME280;60981;50.720;11.342;2023-08-24T03:57:51;62910.69;;;-145.11;100.00
44974;BME280;60981;50.720;11.342;2023-08-24T03:58:56;62910.69;;;-145.11;100.00
44974;BME280;60981;50.720;11.342;2023-08-24T03:59:57;62910.69;;;-145.11;100.00
44974;BME280;60981;50.720;11.342;2023-08-24T04:00:59;62910.69;;;-145.11;100.00
44974;BME280;60981;50.720;11.342;2023-08-24T04:02:01;62910.69;;;-145.11;100.00
44974;BME280;60981;50.720;11.342;2023-08-24T04:03:04;62910.69;;;-145.11;100.00
44974;BME280;60981;50.720;11.342;2023-08-24T04:04:06;62910.69;;;-145.11;100.00
44974;BME280;60981;50.720;11.342;2023-08-24T04:05:09;62910.69;;;-145.11;100.00
44974;BME280;60981;50.720;11.342;2023-08-24T04:06:11;62910.69;;;-145.11;100.00
44974;BME280;60981;50.720;11.342;2023-08-24T04:07:13;62910.69;;;-145.11;100.00
44974;BME280;60981;50.720;11.342;2023-08-24T04:08:14;62910.69;;;-145.11;100.00
44974;BME280;60981;50.720;11.342;2023-08-24T04:09:16;62910.69;;;-145.11;100.00
44974;BME280;60981;50.720;11.342;2023-08-24T04:10:18;62910.69;;;-145.11;100.00
44974;BME280;60981;50.720;11.342;2023-08-24T04:11:20;62910.69;;;-145.11;100.00
44974;BME280;60981;50.720;11.342;2023-08-24T04:12:22;62910.69;;;-145.11;100.00
44974;BME280;60981;50.720;11.342;2023-08-24T04:13:24;62910.69;;;-145.11;100.00
44974;BME280;60981;50.720;11.342;2023-08-24T04:14:26;62910.69;;;-145.11;100.00
44974;BME280;60981;50.720;11.342;2023-08-24T04:15:28;62910.69;;;-145.11;100.00
44974;BME280;60981;50.720;11.342;2023-08-24T04:16:30;62910.69;;;-145.11;100.00
44974;BME280;60981;50.720;11.342;2023-08-24T04:17:34;62910.69;;;-145.11;100.00
44974;BME280;60981;50.720;11.342;2023-08-24T04:18:36;62910.69;;;-145.11;100.00
44974;BME280;60981;50.720;11.342;2023-08-24T04:19:38;62910.69;;;-145.11;100.00
44974;BME280;60981;50.720;11.342;2023-08-24T04:20:40;62910.69;;;-145.11;100.00
44974;BME280;60981;50.720;11.342;2023-08-24T04:21:42;62910.69;;;-145.11;100.00
44974;BME280;60981;50.720;11.342;2023-08-24T04:22:45;62910.69;;;-145.11;100.00
44974;BME280;60981;50.720;11.342;2023-08-24T04:23:47;62910.69;;;-145.11;100.00
44974;BME280;60981;50.720;11.342;2023-08-24T04:24:49;62910.69;;;-145.11;100.00
44974;BME280;60981;50.720;11.342;2023-08-24T04:25:50;62910.69;;;-145.11;100.00
44974;BME280;60981;50.720;11.342;2023-08-24T04:26:52;62910.69;;;-145.11;100.00
44974;BME280;60981;50.720;11.342;2023-08-24T04:27:54;62910.69;;;-145.11;100.00
44974;BME280;60981;50.720;11.342;2023-08-24T04:28:56;62910.69;;;-145.11;100.00
44974;BME280;60981;50.720;11.342;2023-08-24T04:29:58;62910.69;;;-145.11;100.00
44974;BME280;60981;50.720;11.342;2023-08-24T04:31:00;62910.69;;;-145.11;100.00
44974;BME280;60981;50.720;11.342;2023-08-24T04:32:02;62910.69;;;-145.11;100.00
44974;BME280;60981;50.720;11.342;2023-08-24T04:33:04;62910.69;;;-145.11;100.00
44974;BME280;60981;50.720;11.342;2023-08-24T04:34:06;62910.69;;;-145.11;100.00
44974;BME280;60981;50.720;11.342;2023-08-24T04:35:08;62910.69;;;-145.11;100.00
44974;BME280;60981;50.720;11.342;2023-08-24T04:36:10;62910.69;;;-145.11;100.00
44974;BME280;60981;50.720;11.342;2023-08-24T04:37:11;62910.69;;;-145.11;100.00
44974;BME280;60981;50.720;11.342;2023-08-24T04:38:14;62910.69;;;-145.11;100.00
44974;BME280;60981;50.720;11.342;2023-08-24T04:39:15;62910.69;;;-145.11;100.00
44974;BME280;60981;50.720;11.342;2023-08-24T04:40:17;62910.69;;;-145.11;100.00
44974;BME280;60981;50.720;11.342;2023-08-24T04:41:19;62910.69;;;-145.11;100.00
44974;BME280;60981;50.720;11.342;2023-08-24T04:42:20;62910.69;;;-145.11;100.00
44974;BME280;60981;50.720;11.342;2023-08-24T04:43:23;62910.69;;;-145.11;100.00
44974;BME280;60981;50.720;11.342;2023-08-24T04:44:25;62910.69;;;-145.11;100.00
44974;BME280;60981;50.720;11.342;2023-08-24T04:45:27;62910.69;;;-145.11;100.00
44974;BME280;60981;50.720;11.342;2023-08-24T04:46:30;62910.69;;;-145.11;100.00
44974;BME280;60981;50.720;11.342;2023-08-24T04:47:31;62910.69;;;-145.11;100.00
44974;BME280;60981;50.720;11.342;2023-08-24T04:48:33;62910.69;;;-145.11;100.00
44974;BME280;60981;50.720;11.342;2023-08-24T04:49:35;62910.69;;;-145.11;100.00
44974;BME280;60981;50.720;11.342;2023-08-24T04:50:37;62910.69;;;-145.11;100.00
44974;BME280;60981;50.720;11.342;2023-08-24T04:51:39;62910.69;;;-145.11;100.00
44974;BME280;60981;50.720;11.342;2023-08-24T04:52:41;62910.69;;;-145.11;100.00
44974;BME280;60981;50.720;11.342;2023-08-24T04:53:42;62910.69;;;-145.11;100.00
44974;BME280;60981;50.720;11.342;2023-08-24T04:54:44;62910.69;;;-145.11;100.00
44974;BME280;60981;50.720;11.342;2023-08-24T04:55:46;62910.69;;;-145.11;100.00
44974;BME280;60981;50.720;11.342;2023-08-24T04:56:48;62910.69;;;-145.11;100.00
44974;BME280;60981;50.720;11.342;2023-08-24T04:57:49;62910.69;;;-145.11;100.00
44974;BME280;60981;50.720;11.342;2023-08-24T04:58:55;62910.69;;;-145.11;100.00
44974;BME280;60981;50.720;11.342;2023-08-24T04:59:58;62910.69;;;-145.11;100.00
44974;BME280;60981;50.720;11.342;2023-08-24T05:01:00;62910.69;;;-145.11;100.00
44974;BME280;60981;50.720;11.342;2023-08-24T05:02:02;62910.69;;;-145.11;100.00
44974;BME280;60981;50.720;11.342;2023-08-24T05:03:05;62910.69;;;-145.11;100.00
44974;BME280;60981;50.720;11.342;2023-08-24T05:04:07;62910.69;;;-145.11;100.00
44974;BME280;60981;50.720;11.342;2023-08-24T05:05:09;62910.69;;;-145.11;100.00
44974;BME280;60981;50.720;11.342;2023-08-24T05:06:15;62910.69;;;-145.11;100.00
44974;BME280;60981;50.720;11.342;2023-08-24T05:07:17;62910.69;;;-145.11;100.00
44974;BME280;60981;50.720;11.342;2023-08-24T05:08:19;62910.69;;;-145.11;100.00
44974;BME280;60981;50.720;11.342;2023-08-24T05:09:22;62910.69;;;-145.11;100.00
44974;BME280;60981;50.720;11.342;2023-08-24T05:10:24;62910.69;;;-145.11;100.00
44974;BME280;60981;50.720;11.342;2023-08-24T05:11:27;62910.69;;;-145.11;100.00
44974;BME280;60981;50.720;11.342;2023-08-24T05:12:30;62910.69;;;-145.11;100.00
44974;BME280;60981;50.720;11.342;2023-08-24T05:13:33;62910.69;;;-145.11;100.00
44974;BME280;60981;50.720;11.342;2023-08-24T05:14:35;62910.69;;;-145.11;100.00
44974;BME280;60981;50.720;11.342;2023-08-24T05:15:37;62910.69;;;-145.11;100.00
44974;BME280;60981;50.720;11.342;2023-08-24T05:16:39;62910.69;;;-145.11;100.00
44974;BME280;60981;50.720;11.342;2023-08-24T05:17:41;62910.69;;;-145.11;100.00
44974;BME280;60981;50.720;11.342;2023-08-24T05:18:43;62910.69;;;-145.11;100.00
44974;BME280;60981;50.720;11.342;2023-08-24T05:19:45;62910.69;;;-145.11;100.00